sensor_id;sensor_type;location;lat;lon;timestamp;P1;durP1;ratioP1;P2;durP2;ratioP2
76850;SDS011;65824;43.726;20.692;2023-06-22T00:00:49;17.48;;;13.23;;
76850;SDS011;65824;43.726;20.692;2023-06-22T00:03:17;19.20;;;13.57;;
76850;SDS011;65824;43.726;20.692;2023-06-22T00:05:42;20.55;;;13.52;;
76850;SDS011;65824;43.726;20.692;2023-06-22T00:08:09;17.92;;;13.73;;
76850;SDS011;65824;43.726;20.692;2023-06-22T00:10:36;16.92;;;13.63;;
76850;SDS011;65824;43.726;20.692;2023-06-22T00:13:02;16.58;;;13.52;;
76850;SDS011;65824;43.726;20.692;2023-06-22T00:15:28;16.98;;;13.70;;
76850;SDS011;65824;43.726;20.692;2023-06-22T00:17:54;18.95;;;14.65;;
76850;SDS011;65824;43.726;20.692;2023-06-22T00:20:22;20.05;;;13.85;;
76850;SDS011;65824;43.726;20.692;2023-06-22T00:22:47;21.38;;;14.30;;
76850;SDS011;65824;43.726;20.692;2023-06-22T00:25:13;16.42;;;13.00;;
76850;SDS011;65824;43.726;20.692;2023-06-22T00:27:39;18.30;;;14.05;;
76850;SDS011;65824;43.726;20.692;2023-06-22T00:30:04;17.00;;;14.23;;
76850;SDS011;65824;43.726;20.692;2023-06-22T00:32:30;18.48;;;13.35;;
76850;SDS011;65824;43.726;20.692;2023-06-22T00:34:57;17.42;;;13.90;;
76850;SDS011;65824;43.726;20.692;2023-06-22T00:37:23;17.58;;;13.57;;
76850;SDS011;65824;43.726;20.692;2023-06-22T00:39:53;17.17;;;12.88;;
76850;SDS011;65824;43.726;20.692;2023-06-22T00:42:40;17.83;;;14.40;;
76850;SDS011;65824;43.726;20.692;2023-06-22T00:45:08;19.58;;;13.65;;
76850;SDS011;65824;43.726;20.692;2023-06-22T00:47:33;18.15;;;13.43;;
76850;SDS011;65824;43.726;20.692;2023-06-22T00:49:59;16.38;;;12.90;;
76850;SDS011;65824;43.726;20.692;2023-06-22T00:52:25;17.83;;;13.80;;
76850;SDS011;65824;43.726;20.692;2023-06-22T00:54:59;17.48;;;14.32;;
76850;SDS011;65824;43.726;20.692;2023-06-22T00:57:27;19.25;;;14.10;;
76850;SDS011;65824;43.726;20.692;2023-06-22T00:59:53;18.90;;;13.80;;
76850;SDS011;65824;43.726;20.692;2023-06-22T01:02:19;19.63;;;15.15;;
76850;SDS011;65824;43.726;20.692;2023-06-22T01:04:44;21.85;;;16.15;;
76850;SDS011;65824;43.726;20.692;2023-06-22T01:07:44;19.40;;;15.20;;
76850;SDS011;65824;43.726;20.692;2023-06-22T01:13:11;20.30;;;15.13;;
76850;SDS011;65824;43.726;20.692;2023-06-22T01:15:44;22.58;;;15.68;;
76850;SDS011;65824;43.726;20.692;2023-06-22T01:20:37;22.10;;;15.63;;
76850;SDS011;65824;43.726;20.692;2023-06-22T01:26:06;20.05;;;14.80;;
76850;SDS011;65824;43.726;20.692;2023-06-22T01:31:10;23.05;;;16.02;;
76850;SDS011;65824;43.726;20.692;2023-06-22T01:33:37;21.35;;;15.35;;
76850;SDS011;65824;43.726;20.692;2023-06-22T01:36:05;23.30;;;15.30;;
76850;SDS011;65824;43.726;20.692;2023-06-22T01:38:32;20.60;;;15.35;;
76850;SDS011;65824;43.726;20.692;2023-06-22T01:41:01;23.00;;;14.88;;
76850;SDS011;65824;43.726;20.692;2023-06-22T01:43:27;22.00;;;15.43;;
76850;SDS011;65824;43.726;20.692;2023-06-22T01:45:55;18.90;;;14.27;;
76850;SDS011;65824;43.726;20.692;2023-06-22T01:48:22;22.17;;;15.35;;
76850;SDS011;65824;43.726;20.692;2023-06-22T01:50:52;21.00;;;15.85;;
76850;SDS011;65824;43.726;20.692;2023-06-22T01:53:20;31.02;;;19.30;;
76850;SDS011;65824;43.726;20.692;2023-06-22T01:55:49;27.80;;;18.55;;
76850;SDS011;65824;43.726;20.692;2023-06-22T01:58:15;32.78;;;22.25;;
76850;SDS011;65824;43.726;20.692;2023-06-22T02:00:44;36.28;;;26.80;;
76850;SDS011;65824;43.726;20.692;2023-06-22T02:03:17;39.30;;;29.33;;
76850;SDS011;65824;43.726;20.692;2023-06-22T02:06:01;40.45;;;26.70;;
76850;SDS011;65824;43.726;20.692;2023-06-22T02:08:30;33.88;;;24.55;;
76850;SDS011;65824;43.726;20.692;2023-06-22T02:11:01;30.45;;;22.30;;
76850;SDS011;65824;43.726;20.692;2023-06-22T02:13:29;30.33;;;19.73;;
76850;SDS011;65824;43.726;20.692;2023-06-22T02:15:54;21.17;;;16.67;;
76850;SDS011;65824;43.726;20.692;2023-06-22T02:18:21;23.05;;;16.60;;
76850;SDS011;65824;43.726;20.692;2023-06-22T02:20:46;21.67;;;16.88;;
76850;SDS011;65824;43.726;20.692;2023-06-22T02:23:12;22.95;;;15.60;;
76850;SDS011;65824;43.726;20.692;2023-06-22T02:25:38;23.73;;;14.40;;
76850;SDS011;65824;43.726;20.692;2023-06-22T02:28:04;19.45;;;14.50;;
76850;SDS011;65824;43.726;20.692;2023-06-22T02:30:30;21.42;;;15.52;;
76850;SDS011;65824;43.726;20.692;2023-06-22T02:32:55;20.70;;;14.93;;
76850;SDS011;65824;43.726;20.692;2023-06-22T02:35:25;18.38;;;15.45;;
76850;SDS011;65824;43.726;20.692;2023-06-22T02:37:58;20.20;;;15.45;;
76850;SDS011;65824;43.726;20.692;2023-06-22T02:40:25;19.42;;;16.20;;
76850;SDS011;65824;43.726;20.692;2023-06-22T02:42:51;19.17;;;14.63;;
76850;SDS011;65824;43.726;20.692;2023-06-22T02:45:17;19.55;;;14.55;;
76850;SDS011;65824;43.726;20.692;2023-06-22T02:47:43;19.77;;;14.68;;
76850;SDS011;65824;43.726;20.692;2023-06-22T02:50:11;21.35;;;14.38;;
76850;SDS011;65824;43.726;20.692;2023-06-22T02:52:36;19.15;;;15.48;;
76850;SDS011;65824;43.726;20.692;2023-06-22T02:55:04;17.70;;;14.57;;
76850;SDS011;65824;43.726;20.692;2023-06-22T02:57:30;18.63;;;14.23;;
76850;SDS011;65824;43.726;20.692;2023-06-22T02:59:56;20.98;;;15.30;;
76850;SDS011;65824;43.726;20.692;2023-06-22T03:02:21;20.08;;;15.20;;
76850;SDS011;65824;43.726;20.692;2023-06-22T03:04:48;18.30;;;14.57;;
76850;SDS011;65824;43.726;20.692;2023-06-22T03:07:14;19.55;;;14.48;;
76850;SDS011;65824;43.726;20.692;2023-06-22T03:09:42;22.00;;;15.75;;
76850;SDS011;65824;43.726;20.692;2023-06-22T03:12:08;19.65;;;14.85;;
76850;SDS011;65824;43.726;20.692;2023-06-22T03:14:34;20.02;;;15.93;;
76850;SDS011;65824;43.726;20.692;2023-06-22T03:16:59;22.88;;;14.77;;
76850;SDS011;65824;43.726;20.692;2023-06-22T03:19:28;21.85;;;15.52;;
76850;SDS011;65824;43.726;20.692;2023-06-22T03:22:00;25.65;;;16.08;;
76850;SDS011;65824;43.726;20.692;2023-06-22T03:24:26;22.05;;;15.65;;
76850;SDS011;65824;43.726;20.692;2023-06-22T03:26:56;24.35;;;15.32;;
76850;SDS011;65824;43.726;20.692;2023-06-22T03:29:24;27.85;;;16.30;;
76850;SDS011;65824;43.726;20.692;2023-06-22T03:31:52;30.65;;;16.98;;
76850;SDS011;65824;43.726;20.692;2023-06-22T03:34:18;23.02;;;17.55;;
76850;SDS011;65824;43.726;20.692;2023-06-22T03:36:45;22.90;;;16.23;;
76850;SDS011;65824;43.726;20.692;2023-06-22T03:39:10;27.58;;;17.48;;
76850;SDS011;65824;43.726;20.692;2023-06-22T03:41:36;24.00;;;15.88;;
76850;SDS011;65824;43.726;20.692;2023-06-22T03:44:01;26.35;;;16.45;;
76850;SDS011;65824;43.726;20.692;2023-06-22T03:46:27;26.40;;;17.42;;
76850;SDS011;65824;43.726;20.692;2023-06-22T03:48:52;24.60;;;16.85;;
76850;SDS011;65824;43.726;20.692;2023-06-22T03:51:21;23.13;;;16.38;;
76850;SDS011;65824;43.726;20.692;2023-06-22T03:53:47;24.30;;;16.52;;
76850;SDS011;65824;43.726;20.692;2023-06-22T03:56:13;24.33;;;17.88;;
76850;SDS011;65824;43.726;20.692;2023-06-22T03:58:45;23.77;;;16.73;;
76850;SDS011;65824;43.726;20.692;2023-06-22T04:01:12;22.20;;;17.20;;
76850;SDS011;65824;43.726;20.692;2023-06-22T04:03:38;23.67;;;17.77;;
76850;SDS011;65824;43.726;20.692;2023-06-22T04:06:04;21.73;;;16.25;;
76850;SDS011;65824;43.726;20.692;2023-06-22T04:08:30;24.77;;;16.60;;
76850;SDS011;65824;43.726;20.692;2023-06-22T04:11:00;23.13;;;16.75;;
76850;SDS011;65824;43.726;20.692;2023-06-22T04:13:26;23.33;;;16.52;;
76850;SDS011;65824;43.726;20.692;2023-06-22T04:15:51;22.00;;;16.67;;
76850;SDS011;65824;43.726;20.692;2023-06-22T04:18:17;21.25;;;17.23;;
76850;SDS011;65824;43.726;20.692;2023-06-22T04:20:43;20.58;;;16.23;;
76850;SDS011;65824;43.726;20.692;2023-06-22T04:23:11;26.02;;;16.45;;
76850;SDS011;65824;43.726;20.692;2023-06-22T04:25:39;21.70;;;15.52;;
76850;SDS011;65824;43.726;20.692;2023-06-22T04:28:05;24.27;;;16.08;;
76850;SDS011;65824;43.726;20.692;2023-06-22T04:30:32;26.50;;;16.73;;
76850;SDS011;65824;43.726;20.692;2023-06-22T04:32:58;21.90;;;15.45;;
76850;SDS011;65824;43.726;20.692;2023-06-22T04:35:24;21.33;;;14.13;;
76850;SDS011;65824;43.726;20.692;2023-06-22T04:37:52;19.63;;;15.10;;
76850;SDS011;65824;43.726;20.692;2023-06-22T04:40:21;20.27;;;15.20;;
76850;SDS011;65824;43.726;20.692;2023-06-22T04:45:19;19.95;;;13.68;;
76850;SDS011;65824;43.726;20.692;2023-06-22T04:47:47;27.55;;;16.42;;
76850;SDS011;65824;43.726;20.692;2023-06-22T04:50:14;18.75;;;14.80;;
76850;SDS011;65824;43.726;20.692;2023-06-22T04:52:40;19.13;;;14.90;;
76850;SDS011;65824;43.726;20.692;2023-06-22T04:55:05;19.60;;;14.57;;
76850;SDS011;65824;43.726;20.692;2023-06-22T04:57:35;23.17;;;15.98;;
76850;SDS011;65824;43.726;20.692;2023-06-22T05:00:00;22.85;;;16.25;;
76850;SDS011;65824;43.726;20.692;2023-06-22T05:02:36;21.45;;;15.45;;
76850;SDS011;65824;43.726;20.692;2023-06-22T05:05:06;19.95;;;14.85;;
76850;SDS011;65824;43.726;20.692;2023-06-22T05:07:34;23.92;;;15.60;;
76850;SDS011;65824;43.726;20.692;2023-06-22T05:10:03;19.02;;;14.70;;
76850;SDS011;65824;43.726;20.692;2023-06-22T05:12:32;18.67;;;14.70;;
76850;SDS011;65824;43.726;20.692;2023-06-22T05:14:57;22.17;;;14.98;;
76850;SDS011;65824;43.726;20.692;2023-06-22T05:17:24;20.90;;;15.88;;
76850;SDS011;65824;43.726;20.692;2023-06-22T05:19:49;25.63;;;15.73;;
76850;SDS011;65824;43.726;20.692;2023-06-22T05:22:15;23.98;;;16.35;;
76850;SDS011;65824;43.726;20.692;2023-06-22T05:24:41;20.23;;;15.32;;
76850;SDS011;65824;43.726;20.692;2023-06-22T05:27:10;23.58;;;16.90;;
76850;SDS011;65824;43.726;20.692;2023-06-22T05:29:37;22.67;;;16.80;;
76850;SDS011;65824;43.726;20.692;2023-06-22T05:32:02;20.77;;;15.85;;
76850;SDS011;65824;43.726;20.692;2023-06-22T05:34:28;21.23;;;15.45;;
76850;SDS011;65824;43.726;20.692;2023-06-22T05:36:56;18.10;;;14.82;;
76850;SDS011;65824;43.726;20.692;2023-06-22T05:39:23;19.27;;;14.95;;
76850;SDS011;65824;43.726;20.692;2023-06-22T05:41:51;17.20;;;14.32;;
76850;SDS011;65824;43.726;20.692;2023-06-22T05:44:18;19.00;;;16.00;;
76850;SDS011;65824;43.726;20.692;2023-06-22T05:46:43;22.38;;;15.50;;
76850;SDS011;65824;43.726;20.692;2023-06-22T05:49:12;18.60;;;14.45;;
76850;SDS011;65824;43.726;20.692;2023-06-22T05:51:38;19.13;;;14.77;;
76850;SDS011;65824;43.726;20.692;2023-06-22T05:54:06;23.20;;;14.88;;
76850;SDS011;65824;43.726;20.692;2023-06-22T05:56:33;25.08;;;14.73;;
76850;SDS011;65824;43.726;20.692;2023-06-22T05:58:59;20.33;;;15.98;;
76850;SDS011;65824;43.726;20.692;2023-06-22T06:01:25;18.48;;;15.50;;
76850;SDS011;65824;43.726;20.692;2023-06-22T06:03:51;20.75;;;15.52;;
76850;SDS011;65824;43.726;20.692;2023-06-22T06:06:17;29.67;;;16.00;;
76850;SDS011;65824;43.726;20.692;2023-06-22T06:08:47;22.45;;;16.77;;
76850;SDS011;65824;43.726;20.692;2023-06-22T06:11:14;24.30;;;16.92;;
76850;SDS011;65824;43.726;20.692;2023-06-22T06:13:40;21.63;;;14.98;;
76850;SDS011;65824;43.726;20.692;2023-06-22T06:16:05;22.02;;;15.05;;
76850;SDS011;65824;43.726;20.692;2023-06-22T06:18:32;23.25;;;14.88;;
76850;SDS011;65824;43.726;20.692;2023-06-22T06:21:00;19.70;;;14.95;;
76850;SDS011;65824;43.726;20.692;2023-06-22T06:23:26;23.42;;;15.45;;
76850;SDS011;65824;43.726;20.692;2023-06-22T06:25:51;23.45;;;16.02;;
76850;SDS011;65824;43.726;20.692;2023-06-22T06:28:16;25.88;;;17.27;;
76850;SDS011;65824;43.726;20.692;2023-06-22T06:30:42;26.25;;;17.05;;
76850;SDS011;65824;43.726;20.692;2023-06-22T06:33:10;28.70;;;17.92;;
76850;SDS011;65824;43.726;20.692;2023-06-22T06:35:36;24.65;;;19.50;;
76850;SDS011;65824;43.726;20.692;2023-06-22T06:38:02;25.88;;;18.48;;
76850;SDS011;65824;43.726;20.692;2023-06-22T06:40:29;33.10;;;19.27;;
76850;SDS011;65824;43.726;20.692;2023-06-22T06:42:56;28.52;;;19.17;;
76850;SDS011;65824;43.726;20.692;2023-06-22T06:45:23;28.08;;;21.23;;
76850;SDS011;65824;43.726;20.692;2023-06-22T06:47:56;30.90;;;20.45;;
76850;SDS011;65824;43.726;20.692;2023-06-22T06:50:22;28.73;;;19.55;;
76850;SDS011;65824;43.726;20.692;2023-06-22T06:52:48;26.52;;;20.63;;
76850;SDS011;65824;43.726;20.692;2023-06-22T06:55:15;23.17;;;17.95;;
76850;SDS011;65824;43.726;20.692;2023-06-22T06:57:41;26.65;;;18.05;;
76850;SDS011;65824;43.726;20.692;2023-06-22T07:00:07;22.90;;;16.88;;
76850;SDS011;65824;43.726;20.692;2023-06-22T07:02:40;20.35;;;16.17;;
76850;SDS011;65824;43.726;20.692;2023-06-22T07:05:09;26.25;;;20.15;;
76850;SDS011;65824;43.726;20.692;2023-06-22T07:07:35;25.05;;;18.77;;
76850;SDS011;65824;43.726;20.692;2023-06-22T07:10:01;20.50;;;16.58;;
76850;SDS011;65824;43.726;20.692;2023-06-22T07:12:28;18.35;;;15.98;;
76850;SDS011;65824;43.726;20.692;2023-06-22T07:15:11;19.15;;;15.70;;
76850;SDS011;65824;43.726;20.692;2023-06-22T07:17:38;20.77;;;17.02;;
76850;SDS011;65824;43.726;20.692;2023-06-22T07:20:23;21.65;;;16.65;;
76850;SDS011;65824;43.726;20.692;2023-06-22T07:22:49;21.70;;;15.95;;
76850;SDS011;65824;43.726;20.692;2023-06-22T07:25:15;28.67;;;20.52;;
76850;SDS011;65824;43.726;20.692;2023-06-22T07:27:46;24.77;;;19.13;;
76850;SDS011;65824;43.726;20.692;2023-06-22T07:30:22;22.20;;;17.45;;
76850;SDS011;65824;43.726;20.692;2023-06-22T07:32:48;21.63;;;16.58;;
76850;SDS011;65824;43.726;20.692;2023-06-22T07:35:14;17.67;;;14.77;;
76850;SDS011;65824;43.726;20.692;2023-06-22T07:37:43;17.48;;;14.65;;
76850;SDS011;65824;43.726;20.692;2023-06-22T07:40:09;27.35;;;19.98;;
76850;SDS011;65824;43.726;20.692;2023-06-22T07:42:35;29.30;;;24.58;;
76850;SDS011;65824;43.726;20.692;2023-06-22T07:45:02;21.42;;;16.50;;
76850;SDS011;65824;43.726;20.692;2023-06-22T07:47:29;23.38;;;20.58;;
76850;SDS011;65824;43.726;20.692;2023-06-22T07:49:58;23.52;;;20.25;;
76850;SDS011;65824;43.726;20.692;2023-06-22T07:52:26;23.08;;;18.65;;
76850;SDS011;65824;43.726;20.692;2023-06-22T07:54:52;22.33;;;17.23;;
76850;SDS011;65824;43.726;20.692;2023-06-22T07:57:31;21.85;;;17.83;;
76850;SDS011;65824;43.726;20.692;2023-06-22T07:59:59;21.17;;;17.25;;
76850;SDS011;65824;43.726;20.692;2023-06-22T08:04:58;31.42;;;19.85;;
76850;SDS011;65824;43.726;20.692;2023-06-22T08:07:28;18.35;;;15.80;;
76850;SDS011;65824;43.726;20.692;2023-06-22T08:09:54;19.90;;;15.43;;
76850;SDS011;65824;43.726;20.692;2023-06-22T08:12:20;23.35;;;16.48;;
76850;SDS011;65824;43.726;20.692;2023-06-22T08:14:55;19.80;;;14.45;;
76850;SDS011;65824;43.726;20.692;2023-06-22T08:17:22;24.95;;;17.80;;
76850;SDS011;65824;43.726;20.692;2023-06-22T08:19:49;23.92;;;18.42;;
76850;SDS011;65824;43.726;20.692;2023-06-22T08:22:20;23.42;;;19.52;;
76850;SDS011;65824;43.726;20.692;2023-06-22T08:24:55;18.25;;;15.00;;
76850;SDS011;65824;43.726;20.692;2023-06-22T08:27:21;21.77;;;16.80;;
76850;SDS011;65824;43.726;20.692;2023-06-22T08:29:48;19.33;;;16.33;;
76850;SDS011;65824;43.726;20.692;2023-06-22T08:32:14;19.35;;;16.48;;
76850;SDS011;65824;43.726;20.692;2023-06-22T08:34:40;22.73;;;17.17;;
76850;SDS011;65824;43.726;20.692;2023-06-22T08:37:10;18.63;;;15.50;;
76850;SDS011;65824;43.726;20.692;2023-06-22T08:39:40;18.65;;;15.95;;
76850;SDS011;65824;43.726;20.692;2023-06-22T08:42:09;18.58;;;15.88;;
76850;SDS011;65824;43.726;20.692;2023-06-22T08:44:34;22.77;;;17.35;;
76850;SDS011;65824;43.726;20.692;2023-06-22T08:47:01;18.88;;;16.08;;
76850;SDS011;65824;43.726;20.692;2023-06-22T08:49:27;20.55;;;16.50;;
76850;SDS011;65824;43.726;20.692;2023-06-22T08:51:53;18.42;;;14.75;;
76850;SDS011;65824;43.726;20.692;2023-06-22T08:54:21;18.10;;;14.48;;
76850;SDS011;65824;43.726;20.692;2023-06-22T08:56:46;19.45;;;15.23;;
76850;SDS011;65824;43.726;20.692;2023-06-22T08:59:12;17.70;;;14.80;;
76850;SDS011;65824;43.726;20.692;2023-06-22T09:01:38;19.38;;;16.05;;
76850;SDS011;65824;43.726;20.692;2023-06-22T09:04:13;17.80;;;14.40;;
76850;SDS011;65824;43.726;20.692;2023-06-22T09:06:39;17.58;;;12.75;;
76850;SDS011;65824;43.726;20.692;2023-06-22T09:09:10;18.02;;;12.65;;
76850;SDS011;65824;43.726;20.692;2023-06-22T09:11:37;15.40;;;12.23;;
76850;SDS011;65824;43.726;20.692;2023-06-22T09:14:02;15.48;;;13.40;;
76850;SDS011;65824;43.726;20.692;2023-06-22T09:16:32;18.70;;;13.48;;
76850;SDS011;65824;43.726;20.692;2023-06-22T09:18:57;17.88;;;14.05;;
76850;SDS011;65824;43.726;20.692;2023-06-22T09:21:23;17.23;;;13.32;;
76850;SDS011;65824;43.726;20.692;2023-06-22T09:23:49;16.85;;;12.00;;
76850;SDS011;65824;43.726;20.692;2023-06-22T09:26:18;15.55;;;13.55;;
76850;SDS011;65824;43.726;20.692;2023-06-22T09:28:44;16.05;;;12.13;;
76850;SDS011;65824;43.726;20.692;2023-06-22T09:31:10;19.52;;;12.10;;
76850;SDS011;65824;43.726;20.692;2023-06-22T09:33:36;16.98;;;12.68;;
76850;SDS011;65824;43.726;20.692;2023-06-22T09:36:08;18.70;;;12.05;;
76850;SDS011;65824;43.726;20.692;2023-06-22T09:38:35;14.70;;;11.90;;
76850;SDS011;65824;43.726;20.692;2023-06-22T09:43:31;16.85;;;12.90;;
76850;SDS011;65824;43.726;20.692;2023-06-22T09:45:57;13.70;;;9.88;;
76850;SDS011;65824;43.726;20.692;2023-06-22T09:48:25;11.38;;;9.55;;
76850;SDS011;65824;43.726;20.692;2023-06-22T09:50:51;13.82;;;10.00;;
76850;SDS011;65824;43.726;20.692;2023-06-22T09:53:17;13.90;;;8.20;;
76850;SDS011;65824;43.726;20.692;2023-06-22T09:55:44;10.35;;;8.98;;
76850;SDS011;65824;43.726;20.692;2023-06-22T09:58:10;10.65;;;8.82;;
76850;SDS011;65824;43.726;20.692;2023-06-22T10:00:40;11.13;;;7.80;;
76850;SDS011;65824;43.726;20.692;2023-06-22T10:03:06;10.48;;;7.78;;
76850;SDS011;65824;43.726;20.692;2023-06-22T10:05:32;8.90;;;7.53;;
76850;SDS011;65824;43.726;20.692;2023-06-22T10:07:59;11.25;;;8.73;;
76850;SDS011;65824;43.726;20.692;2023-06-22T10:10:29;8.98;;;7.30;;
76850;SDS011;65824;43.726;20.692;2023-06-22T10:15:21;10.20;;;8.15;;
76850;SDS011;65824;43.726;20.692;2023-06-22T10:17:46;11.13;;;8.38;;
76850;SDS011;65824;43.726;20.692;2023-06-22T10:20:13;12.90;;;9.27;;
76850;SDS011;65824;43.726;20.692;2023-06-22T10:22:43;12.48;;;9.27;;
76850;SDS011;65824;43.726;20.692;2023-06-22T10:25:10;11.02;;;9.82;;
76850;SDS011;65824;43.726;20.692;2023-06-22T10:27:38;17.98;;;8.90;;
76850;SDS011;65824;43.726;20.692;2023-06-22T10:30:08;11.13;;;7.80;;
76850;SDS011;65824;43.726;20.692;2023-06-22T10:32:41;9.98;;;7.43;;
76850;SDS011;65824;43.726;20.692;2023-06-22T10:35:08;9.55;;;7.93;;
76850;SDS011;65824;43.726;20.692;2023-06-22T10:37:45;12.68;;;8.82;;
76850;SDS011;65824;43.726;20.692;2023-06-22T10:40:12;9.73;;;8.05;;
76850;SDS011;65824;43.726;20.692;2023-06-22T10:42:45;10.48;;;8.20;;
76850;SDS011;65824;43.726;20.692;2023-06-22T10:45:11;11.68;;;9.05;;
76850;SDS011;65824;43.726;20.692;2023-06-22T10:47:37;10.80;;;9.13;;
76850;SDS011;65824;43.726;20.692;2023-06-22T10:50:03;14.05;;;9.48;;
76850;SDS011;65824;43.726;20.692;2023-06-22T10:52:32;9.27;;;7.28;;
76850;SDS011;65824;43.726;20.692;2023-06-22T10:54:58;11.02;;;7.50;;
76850;SDS011;65824;43.726;20.692;2023-06-22T10:57:24;15.18;;;8.93;;
76850;SDS011;65824;43.726;20.692;2023-06-22T10:59:50;9.68;;;7.63;;
76850;SDS011;65824;43.726;20.692;2023-06-22T11:02:15;8.85;;;7.70;;
76850;SDS011;65824;43.726;20.692;2023-06-22T11:04:44;15.25;;;9.48;;
76850;SDS011;65824;43.726;20.692;2023-06-22T11:07:11;12.15;;;9.05;;
76850;SDS011;65824;43.726;20.692;2023-06-22T11:09:39;12.02;;;8.63;;
76850;SDS011;65824;43.726;20.692;2023-06-22T11:12:05;10.90;;;8.00;;
76850;SDS011;65824;43.726;20.692;2023-06-22T11:14:31;13.15;;;8.88;;
76850;SDS011;65824;43.726;20.692;2023-06-22T11:17:04;12.65;;;8.82;;
76850;SDS011;65824;43.726;20.692;2023-06-22T11:19:30;12.68;;;9.32;;
76850;SDS011;65824;43.726;20.692;2023-06-22T11:22:00;12.73;;;9.75;;
76850;SDS011;65824;43.726;20.692;2023-06-22T11:24:25;10.05;;;8.88;;
76850;SDS011;65824;43.726;20.692;2023-06-22T11:26:50;15.93;;;9.07;;
76850;SDS011;65824;43.726;20.692;2023-06-22T11:29:21;11.75;;;9.65;;
76850;SDS011;65824;43.726;20.692;2023-06-22T11:31:47;13.10;;;9.85;;
76850;SDS011;65824;43.726;20.692;2023-06-22T11:34:15;10.40;;;8.68;;
76850;SDS011;65824;43.726;20.692;2023-06-22T11:36:40;10.70;;;8.93;;
76850;SDS011;65824;43.726;20.692;2023-06-22T11:39:07;13.15;;;9.32;;
76850;SDS011;65824;43.726;20.692;2023-06-22T11:41:39;11.07;;;9.23;;
76850;SDS011;65824;43.726;20.692;2023-06-22T11:44:05;10.82;;;9.55;;
76850;SDS011;65824;43.726;20.692;2023-06-22T11:46:30;10.70;;;8.32;;
76850;SDS011;65824;43.726;20.692;2023-06-22T11:49:02;12.45;;;9.43;;
76850;SDS011;65824;43.726;20.692;2023-06-22T11:51:29;12.18;;;9.13;;
76850;SDS011;65824;43.726;20.692;2023-06-22T11:54:05;11.45;;;9.07;;
76850;SDS011;65824;43.726;20.692;2023-06-22T11:56:32;10.75;;;9.25;;
76850;SDS011;65824;43.726;20.692;2023-06-22T11:59:03;12.68;;;8.85;;
76850;SDS011;65824;43.726;20.692;2023-06-22T12:01:30;11.95;;;8.82;;
76850;SDS011;65824;43.726;20.692;2023-06-22T12:04:02;12.10;;;8.95;;
76850;SDS011;65824;43.726;20.692;2023-06-22T12:06:30;12.93;;;9.02;;
76850;SDS011;65824;43.726;20.692;2023-06-22T12:09:00;12.43;;;9.55;;
76850;SDS011;65824;43.726;20.692;2023-06-22T12:11:34;15.27;;;9.02;;
76850;SDS011;65824;43.726;20.692;2023-06-22T12:13:59;15.60;;;9.68;;
76850;SDS011;65824;43.726;20.692;2023-06-22T12:16:27;10.15;;;8.38;;
76850;SDS011;65824;43.726;20.692;2023-06-22T12:18:53;14.70;;;9.50;;
76850;SDS011;65824;43.726;20.692;2023-06-22T12:21:22;11.52;;;9.40;;
76850;SDS011;65824;43.726;20.692;2023-06-22T12:23:47;14.95;;;10.18;;
76850;SDS011;65824;43.726;20.692;2023-06-22T12:26:23;14.02;;;8.90;;
76850;SDS011;65824;43.726;20.692;2023-06-22T12:28:55;9.98;;;8.88;;
76850;SDS011;65824;43.726;20.692;2023-06-22T12:31:20;12.02;;;9.07;;
76850;SDS011;65824;43.726;20.692;2023-06-22T12:33:49;10.60;;;8.70;;
76850;SDS011;65824;43.726;20.692;2023-06-22T12:36:15;15.07;;;9.10;;
76850;SDS011;65824;43.726;20.692;2023-06-22T12:38:41;12.00;;;8.55;;
76850;SDS011;65824;43.726;20.692;2023-06-22T12:41:08;12.45;;;9.27;;
76850;SDS011;65824;43.726;20.692;2023-06-22T12:43:43;11.02;;;7.95;;
76850;SDS011;65824;43.726;20.692;2023-06-22T12:46:09;11.35;;;8.80;;
76850;SDS011;65824;43.726;20.692;2023-06-22T12:48:35;10.65;;;8.68;;
76850;SDS011;65824;43.726;20.692;2023-06-22T12:51:08;11.93;;;9.43;;
76850;SDS011;65824;43.726;20.692;2023-06-22T12:53:35;17.80;;;9.45;;
76850;SDS011;65824;43.726;20.692;2023-06-22T12:56:10;12.13;;;9.90;;
76850;SDS011;65824;43.726;20.692;2023-06-22T12:58:38;12.57;;;9.80;;
76850;SDS011;65824;43.726;20.692;2023-06-22T13:01:04;12.27;;;9.80;;
76850;SDS011;65824;43.726;20.692;2023-06-22T13:03:40;16.23;;;10.55;;
76850;SDS011;65824;43.726;20.692;2023-06-22T13:06:14;12.80;;;9.90;;
76850;SDS011;65824;43.726;20.692;2023-06-22T13:08:49;10.50;;;9.30;;
76850;SDS011;65824;43.726;20.692;2023-06-22T13:11:15;11.98;;;9.73;;
76850;SDS011;65824;43.726;20.692;2023-06-22T13:13:41;11.70;;;9.77;;
76850;SDS011;65824;43.726;20.692;2023-06-22T13:16:11;10.95;;;9.80;;
76850;SDS011;65824;43.726;20.692;2023-06-22T13:18:42;14.13;;;9.32;;
76850;SDS011;65824;43.726;20.692;2023-06-22T13:21:08;12.65;;;9.68;;
76850;SDS011;65824;43.726;20.692;2023-06-22T13:23:36;12.65;;;8.95;;
76850;SDS011;65824;43.726;20.692;2023-06-22T13:26:03;12.00;;;9.55;;
76850;SDS011;65824;43.726;20.692;2023-06-22T13:28:29;11.82;;;9.13;;
76850;SDS011;65824;43.726;20.692;2023-06-22T13:31:03;13.82;;;10.02;;
76850;SDS011;65824;43.726;20.692;2023-06-22T13:33:30;10.50;;;9.32;;
76850;SDS011;65824;43.726;20.692;2023-06-22T13:35:58;13.45;;;10.10;;
76850;SDS011;65824;43.726;20.692;2023-06-22T13:38:24;13.07;;;9.50;;
76850;SDS011;65824;43.726;20.692;2023-06-22T13:40:57;14.32;;;10.40;;
76850;SDS011;65824;43.726;20.692;2023-06-22T13:43:26;12.02;;;9.38;;
76850;SDS011;65824;43.726;20.692;2023-06-22T13:45:54;13.93;;;9.55;;
76850;SDS011;65824;43.726;20.692;2023-06-22T13:48:19;14.45;;;10.10;;
76850;SDS011;65824;43.726;20.692;2023-06-22T13:50:45;14.13;;;9.57;;
76850;SDS011;65824;43.726;20.692;2023-06-22T13:53:11;12.90;;;9.15;;
76850;SDS011;65824;43.726;20.692;2023-06-22T13:55:36;10.75;;;9.30;;
76850;SDS011;65824;43.726;20.692;2023-06-22T13:58:02;11.90;;;9.60;;
76850;SDS011;65824;43.726;20.692;2023-06-22T14:00:33;12.63;;;9.82;;
76850;SDS011;65824;43.726;20.692;2023-06-22T14:02:58;11.77;;;9.25;;
76850;SDS011;65824;43.726;20.692;2023-06-22T14:05:25;13.35;;;9.02;;
76850;SDS011;65824;43.726;20.692;2023-06-22T14:07:51;11.88;;;8.93;;
76850;SDS011;65824;43.726;20.692;2023-06-22T14:10:17;12.75;;;8.63;;
76850;SDS011;65824;43.726;20.692;2023-06-22T14:12:42;9.68;;;8.32;;
76850;SDS011;65824;43.726;20.692;2023-06-22T14:15:16;15.75;;;8.70;;
76850;SDS011;65824;43.726;20.692;2023-06-22T14:17:43;10.23;;;8.45;;
76850;SDS011;65824;43.726;20.692;2023-06-22T14:20:10;13.25;;;8.18;;
76850;SDS011;65824;43.726;20.692;2023-06-22T14:22:36;15.40;;;8.77;;
76850;SDS011;65824;43.726;20.692;2023-06-22T14:25:10;11.40;;;8.07;;
76850;SDS011;65824;43.726;20.692;2023-06-22T14:27:37;10.88;;;7.43;;
76850;SDS011;65824;43.726;20.692;2023-06-22T14:30:16;10.23;;;7.32;;
76850;SDS011;65824;43.726;20.692;2023-06-22T14:32:43;10.48;;;7.75;;
76850;SDS011;65824;43.726;20.692;2023-06-22T14:35:09;10.23;;;7.82;;
76850;SDS011;65824;43.726;20.692;2023-06-22T14:37:45;10.38;;;7.65;;